createdAt,value
2019-03-21T00:02:00.141Z,76.20
2019-03-21T00:06:02.347Z,76.38
2019-03-21T00:10:31.561Z,76.54
2019-03-21T00:14:59.395Z,76.41
2019-03-21T00:19:01.443Z,76.28
2019-03-21T00:23:03.370Z,76.80
2019-03-21T00:27:05.507Z,76.64
2019-03-21T00:31:07.422Z,77.11
2019-03-21T00:35:11.313Z,76.86
2019-03-21T00:39:13.227Z,76.83
2019-03-21T00:43:15.311Z,77.06
2019-03-21T00:47:18.169Z,76.75
2019-03-21T00:51:20.083Z,76.45
2019-03-21T00:55:22.908Z,76.29
2019-03-21T00:59:24.848Z,76.20
2019-03-21T01:03:27.868Z,76.32
2019-03-21T01:07:29.775Z,76.92
2019-03-21T01:11:31.695Z,77.24
2019-03-21T01:15:33.610Z,76.76
2019-03-21T01:19:35.513Z,77.00
2019-03-21T01:23:38.493Z,77.58
2019-03-21T01:27:41.124Z,78.13
2019-03-21T01:31:43.019Z,78.03
2019-03-21T01:35:45.132Z,77.43
2019-03-21T01:39:47.029Z,77.61
2019-03-21T01:43:49.215Z,77.12
2019-03-21T01:47:53.126Z,76.81
2019-03-21T01:51:55.062Z,77.23
2019-03-21T01:55:56.984Z,77.58
2019-03-21T01:59:58.895Z,77.81
2019-03-21T02:04:00.814Z,77.69
2019-03-21T02:08:02.722Z,79.00
2019-03-21T02:12:04.698Z,79.25
2019-03-21T02:16:06.772Z,79.06
2019-03-21T02:20:18.420Z,78.09
2019-03-21T02:24:20.334Z,78.67
2019-03-21T02:28:22.231Z,78.45
2019-03-21T02:32:24.141Z,78.41
2019-03-21T02:36:26.050Z,79.53
2019-03-21T02:40:28.143Z,80.08
2019-03-21T02:44:30.043Z,79.90
2019-03-21T02:48:31.972Z,79.51
2019-03-21T02:52:33.881Z,80.11
2019-03-21T02:56:35.935Z,79.23
2019-03-21T03:00:42.740Z,79.04
2019-03-21T03:04:44.649Z,79.61
2019-03-21T03:08:46.566Z,79.96
2019-03-21T03:12:48.482Z,79.64
2019-03-21T03:16:50.396Z,79.23
2019-03-21T03:20:53.383Z,79.32
2019-03-21T03:24:55.279Z,79.74
2019-03-21T03:28:57.189Z,79.57
2019-03-21T03:33:00.237Z,80.11
2019-03-21T03:37:02.204Z,80.63
2019-03-21T03:41:15.809Z,81.43
2019-03-21T03:45:37.385Z,81.58
2019-03-21T03:49:31.643Z,82.02
2019-03-21T03:53:33.675Z,82.05
2019-03-21T03:57:35.747Z,81.73
2019-03-21T04:01:37.721Z,82.07
2019-03-21T04:05:40.873Z,82.93
2019-03-21T04:09:42.782Z,82.33
2019-03-21T04:13:44.707Z,81.81
2019-03-21T04:17:46.635Z,81.59
2019-03-21T04:21:48.545Z,80.94
2019-03-21T04:26:07.168Z,81.68
2019-03-21T04:30:13.647Z,81.55
2019-03-21T04:34:15.571Z,80.58
2019-03-21T04:38:17.530Z,81.49
2019-03-21T04:42:19.434Z,80.79
2019-03-21T04:46:21.348Z,80.80
2019-03-21T04:50:41.050Z,80.18
2019-03-21T04:54:42.973Z,80.27
2019-03-21T04:58:44.878Z,80.62
2019-03-21T05:02:46.862Z,80.19
2019-03-21T05:06:48.766Z,79.93
2019-03-21T05:10:50.752Z,81.34
2019-03-21T05:14:52.669Z,81.22
2019-03-21T05:19:00.062Z,80.76
2019-03-21T05:23:02.493Z,80.76
2019-03-21T05:27:04.405Z,80.36
2019-03-21T05:31:28.933Z,80.98
2019-03-21T05:35:30.884Z,81.59
2019-03-21T05:39:32.788Z,80.78
2019-03-21T05:43:48.634Z,80.89
2019-03-21T05:47:50.547Z,81.29
2019-03-21T05:51:52.469Z,81.40
2019-03-21T05:55:54.364Z,81.16
2019-03-21T05:59:56.362Z,81.48
2019-03-21T06:03:58.330Z,81.94
2019-03-21T06:08:28.594Z,82.57
2019-03-21T06:12:30.514Z,83.10
2019-03-21T06:16:37.645Z,83.33
2019-03-21T06:20:58.337Z,83.56
2019-03-21T06:25:19.821Z,83.61
2019-03-21T06:29:21.769Z,83.84
2019-03-21T06:33:23.653Z,84.04
2019-03-21T06:37:28.617Z,85.04
2019-03-21T06:41:31.507Z,85.08
2019-03-21T06:45:33.425Z,84.99
2019-03-21T06:49:35.351Z,85.16
2019-03-21T06:53:37.268Z,85.34
2019-03-21T06:57:39.189Z,85.43
2019-03-21T07:01:41.180Z,85.40
2019-03-21T07:05:43.103Z,85.34
2019-03-21T07:09:45.013Z,85.91
2019-03-21T07:13:46.939Z,85.37
2019-03-21T07:17:48.921Z,84.42
2019-03-21T07:21:50.832Z,83.36
2019-03-21T07:25:52.731Z,82.45
2019-03-21T07:29:54.635Z,80.88
2019-03-21T07:33:56.537Z,80.28
2019-03-21T07:37:58.481Z,79.90
2019-03-21T07:42:01.398Z,79.63
2019-03-21T07:46:05.038Z,79.25
2019-03-21T07:50:13.563Z,78.62
2019-03-21T07:54:15.472Z,77.09
2019-03-21T07:58:17.360Z,76.75
2019-03-21T08:02:19.279Z,75.00
2019-03-21T08:06:21.174Z,74.71
2019-03-21T08:10:23.158Z,73.03
2019-03-21T08:14:25.069Z,72.55
2019-03-21T08:18:26.989Z,70.92
2019-03-21T08:22:28.909Z,69.62
2019-03-21T08:26:30.875Z,68.18
2019-03-21T08:30:38.823Z,68.39
2019-03-21T08:34:41.315Z,67.82
2019-03-21T08:38:43.431Z,65.30
2019-03-21T08:42:45.344Z,64.97
2019-03-21T08:46:47.257Z,63.57
2019-03-21T08:50:49.143Z,62.27
2019-03-21T08:54:51.161Z,62.69
2019-03-21T08:58:53.118Z,59.32
2019-03-21T09:02:55.020Z,58.75
2019-03-21T09:06:56.939Z,59.30
2019-03-21T09:10:58.840Z,58.59
2019-03-21T09:15:00.752Z,57.90
2019-03-21T09:19:02.641Z,57.72
2019-03-21T09:23:04.541Z,57.39
2019-03-21T09:27:06.443Z,56.50
2019-03-21T09:31:08.337Z,57.88
2019-03-21T09:35:12.470Z,54.29
2019-03-21T09:39:15.056Z,54.26
2019-03-21T09:43:16.957Z,53.35
2019-03-21T09:47:19.838Z,51.50
2019-03-21T09:51:30.581Z,50.12
2019-03-21T09:55:25.416Z,51.05
2019-03-21T09:59:27.330Z,47.96
2019-03-21T10:03:29.301Z,47.57
2019-03-21T10:07:31.204Z,47.55
2019-03-21T10:11:33.089Z,46.28
2019-03-21T10:15:34.991Z,45.62
2019-03-21T10:19:36.899Z,43.69
2019-03-21T10:23:38.837Z,42.30
2019-03-21T10:27:41.237Z,41.06
2019-03-21T10:31:43.146Z,39.43
2019-03-21T10:35:46.134Z,40.09
2019-03-21T10:39:48.058Z,38.23
2019-03-21T10:43:49.994Z,36.27
2019-03-21T10:47:51.946Z,36.90
2019-03-21T10:51:55.278Z,35.76
2019-03-21T10:55:57.441Z,36.58
2019-03-21T11:00:01.579Z,36.70
2019-03-21T11:04:02.981Z,36.39
2019-03-21T11:08:05.689Z,34.37
2019-03-21T11:12:07.606Z,33.30
2019-03-21T11:16:09.519Z,32.46
2019-03-21T11:20:14.685Z,31.32
2019-03-21T11:24:16.599Z,30.55
2019-03-21T11:28:18.500Z,29.35
2019-03-21T11:32:20.409Z,30.43
2019-03-21T11:36:22.369Z,31.37
2019-03-21T11:40:24.249Z,32.27
2019-03-21T11:44:26.216Z,31.75
2019-03-21T11:48:28.124Z,29.32
2019-03-21T11:52:30.033Z,28.93
2019-03-21T11:56:31.975Z,28.83
2019-03-21T12:00:43.045Z,29.69
2019-03-21T12:04:37.488Z,30.65
2019-03-21T12:08:39.383Z,27.86
2019-03-21T12:12:41.351Z,28.77
2019-03-21T12:16:43.355Z,27.14
2019-03-21T12:20:45.267Z,27.29
2019-03-21T12:24:47.169Z,26.53
2019-03-21T12:28:49.090Z,27.72
2019-03-21T12:32:51.004Z,26.49
2019-03-21T12:36:52.911Z,25.33
2019-03-21T12:40:55.799Z,23.95
2019-03-21T12:44:57.723Z,27.56
2019-03-21T12:49:00.816Z,28.12
2019-03-21T12:53:03.971Z,29.78
2019-03-21T12:57:05.878Z,28.07
2019-03-21T13:01:07.807Z,25.87
2019-03-21T13:05:15.848Z,25.92
2019-03-21T13:09:17.750Z,26.50
2019-03-21T13:13:19.781Z,26.25
2019-03-21T13:17:21.689Z,25.64
2019-03-21T13:21:25.718Z,25.55
2019-03-21T13:25:27.224Z,24.70
2019-03-21T13:29:29.125Z,24.79
2019-03-21T13:33:31.111Z,25.27
2019-03-21T13:37:33.032Z,24.95
2019-03-21T13:41:34.948Z,24.74
2019-03-21T13:45:38.027Z,25.26
2019-03-21T13:49:39.953Z,22.73
2019-03-21T13:53:41.866Z,23.16
2019-03-21T13:57:43.820Z,23.23
2019-03-21T14:01:45.737Z,23.12
2019-03-21T14:05:47.634Z,22.92
2019-03-21T14:09:49.567Z,23.52
2019-03-21T14:13:51.481Z,23.57
2019-03-21T14:17:53.477Z,24.75
2019-03-21T14:21:55.485Z,23.05
2019-03-21T14:25:57.383Z,23.46
2019-03-21T14:30:01.489Z,24.47
2019-03-21T14:34:03.086Z,24.29
2019-03-21T14:38:05.007Z,24.19
2019-03-21T14:42:06.918Z,24.10
2019-03-21T14:46:08.818Z,23.72
2019-03-21T14:50:16.981Z,24.42
2019-03-21T14:54:18.930Z,24.14
2019-03-21T14:58:20.827Z,25.83
2019-03-21T15:02:22.747Z,24.82
2019-03-21T15:06:25.592Z,24.37
2019-03-21T15:10:27.582Z,23.80
2019-03-21T15:14:31.902Z,22.17
2019-03-21T15:18:33.110Z,22.27
2019-03-21T15:22:35.037Z,22.48
2019-03-21T15:26:37.004Z,23.11
2019-03-21T15:30:38.916Z,21.54
2019-03-21T15:34:40.834Z,21.85
2019-03-21T15:38:42.767Z,22.11
2019-03-21T15:42:44.959Z,21.67
2019-03-21T15:46:46.897Z,21.67
2019-03-21T15:50:48.799Z,22.16
2019-03-21T15:54:50.705Z,23.12
2019-03-21T15:58:52.621Z,23.55
2019-03-21T16:02:54.557Z,25.21
2019-03-21T16:06:56.441Z,25.41
2019-03-21T16:10:58.364Z,25.57
2019-03-21T16:15:00.360Z,25.96
2019-03-21T16:19:02.274Z,26.84
2019-03-21T16:23:04.436Z,27.61
2019-03-21T16:27:06.370Z,27.95
2019-03-21T16:31:08.283Z,27.41
2019-03-21T16:35:11.119Z,27.75
2019-03-21T16:39:13.032Z,28.78
2019-03-21T16:43:14.944Z,29.95
2019-03-21T16:47:16.846Z,30.31
2019-03-21T16:51:19.759Z,31.38
2019-03-21T16:55:21.683Z,34.16
2019-03-21T16:59:23.595Z,36.19
2019-03-21T17:03:25.773Z,36.36
2019-03-21T17:07:27.690Z,38.08
2019-03-21T17:11:29.653Z,38.54
2019-03-21T17:15:31.562Z,39.51
2019-03-21T17:19:33.539Z,40.87
2019-03-21T17:28:16.397Z,42.64
2019-03-21T17:32:18.327Z,43.45
2019-03-21T17:36:20.847Z,44.25
2019-03-21T17:40:22.845Z,46.03
2019-03-21T17:44:25.832Z,47.01
2019-03-21T17:48:27.728Z,47.53
2019-03-21T17:52:29.626Z,48.19
2019-03-21T17:56:31.554Z,49.36
2019-03-21T18:00:34.695Z,49.46
2019-03-21T18:04:36.673Z,50.54
2019-03-21T18:08:38.560Z,50.36
2019-03-21T18:12:43.726Z,50.82
2019-03-21T18:16:45.620Z,51.74
2019-03-21T18:20:47.503Z,51.56
2019-03-21T18:24:54.110Z,52.20
2019-03-21T18:28:52.999Z,53.49
2019-03-21T18:32:55.163Z,54.12
2019-03-21T18:36:57.050Z,55.32
2019-03-21T18:40:58.959Z,55.63
2019-03-21T18:45:00.952Z,56.00
2019-03-21T18:49:02.927Z,56.43
2019-03-21T18:53:04.950Z,56.88
2019-03-21T18:57:06.865Z,57.76
2019-03-21T19:01:08.782Z,58.13
2019-03-21T19:05:10.878Z,58.32
2019-03-21T19:09:12.759Z,58.96
2019-03-21T19:13:14.685Z,59.41
2019-03-21T19:17:16.593Z,59.44
2019-03-21T19:21:18.529Z,59.74
2019-03-21T19:25:20.720Z,60.36
2019-03-21T19:29:22.619Z,60.82
2019-03-21T19:33:25.759Z,61.17
2019-03-21T19:37:27.777Z,61.59
2019-03-21T19:41:30.670Z,61.91
2019-03-21T19:45:32.636Z,62.42
2019-03-21T19:49:34.537Z,62.56
2019-03-21T19:53:36.441Z,62.85
2019-03-21T19:57:38.497Z,63.38
2019-03-21T20:01:40.377Z,64.16
2019-03-21T20:05:42.289Z,64.37
2019-03-21T20:09:44.162Z,65.02
2019-03-21T20:13:46.056Z,65.36
2019-03-21T20:17:48.027Z,65.60
2019-03-21T20:21:49.934Z,65.85
2019-03-21T20:25:52.242Z,65.81
2019-03-21T20:29:54.135Z,66.33
2019-03-21T20:33:56.051Z,66.74
2019-03-21T20:37:57.931Z,67.30
2019-03-21T20:41:59.826Z,66.98
2019-03-21T20:46:01.716Z,68.01
2019-03-21T20:50:13.818Z,68.33
2019-03-21T20:54:15.703Z,68.47
2019-03-21T20:58:17.611Z,68.61
2019-03-21T21:02:19.492Z,68.85
2019-03-21T21:06:21.402Z,69.11
2019-03-21T21:10:23.342Z,69.16
2019-03-21T21:14:25.368Z,69.23
2019-03-21T21:18:27.262Z,69.64
2019-03-21T21:22:29.170Z,70.05
2019-03-21T21:26:31.060Z,70.22
2019-03-21T21:30:33.256Z,70.56
2019-03-21T21:34:35.134Z,70.74
2019-03-21T21:38:37.040Z,70.91
2019-03-21T21:42:38.921Z,70.97
2019-03-21T21:46:40.836Z,71.27
2019-03-21T21:50:42.710Z,71.59
2019-03-21T21:54:44.608Z,71.67
2019-03-21T21:58:46.509Z,71.68
2019-03-21T22:02:48.402Z,72.05
2019-03-21T22:06:50.294Z,71.85
2019-03-21T22:10:52.176Z,72.13
2019-03-21T22:14:54.074Z,72.41
2019-03-21T22:18:55.972Z,72.48
2019-03-21T22:22:58.954Z,72.83
2019-03-21T22:27:01.603Z,73.14
2019-03-21T22:31:03.490Z,73.01
2019-03-21T22:35:06.998Z,73.12
2019-03-21T22:39:09.866Z,73.12
2019-03-21T22:43:11.762Z,73.69
2019-03-21T22:47:13.651Z,73.49
2019-03-21T22:51:15.549Z,73.69
2019-03-21T22:55:17.476Z,73.87
2019-03-21T22:59:19.377Z,73.80
2019-03-21T23:03:21.345Z,73.87
2019-03-21T23:07:23.241Z,74.00
2019-03-21T23:11:25.161Z,74.24
2019-03-21T23:15:27.058Z,74.91
2019-03-21T23:19:28.986Z,74.78
2019-03-21T23:23:30.899Z,75.18
2019-03-21T23:27:32.779Z,75.39
2019-03-21T23:31:35.206Z,75.77
2019-03-21T23:35:37.136Z,75.78
2019-03-21T23:39:39.038Z,75.69
2019-03-21T23:43:40.916Z,75.65
2019-03-21T23:47:42.996Z,75.62
2019-03-21T23:51:44.895Z,75.63
2019-03-21T23:55:46.894Z,76.16
2019-03-21T23:59:48.804Z,76.02
